sensor_id;sensor_type;location;lat;lon;timestamp;pressure;altitude;pressure_sealevel;temperature;humidity
50592;BME280;36548;50.506;30.834;2023-04-27T00:00:15;99231.98;;;13.23;68.63
50592;BME280;36548;50.506;30.834;2023-04-27T00:01:23;99242.77;;;13.13;68.54
50592;BME280;36548;50.506;30.834;2023-04-27T00:02:45;99242.08;;;13.21;68.82
50592;BME280;36548;50.506;30.834;2023-04-27T00:03:54;99249.41;;;12.99;68.31
50592;BME280;36548;50.506;30.834;2023-04-27T00:05:11;99241.62;;;12.96;68.90
50592;BME280;36548;50.506;30.834;2023-04-27T00:06:21;99244.13;;;12.78;69.25
50592;BME280;36548;50.506;30.834;2023-04-27T00:07:38;99237.34;;;12.84;69.99
50592;BME280;36548;50.506;30.834;2023-04-27T00:08:49;99242.98;;;12.71;70.18
50592;BME280;36548;50.506;30.834;2023-04-27T00:09:58;99251.20;;;12.69;70.37
50592;BME280;36548;50.506;30.834;2023-04-27T00:11:16;99240.01;;;12.74;70.22
50592;BME280;36548;50.506;30.834;2023-04-27T00:12:26;99248.48;;;12.59;70.02
50592;BME280;36548;50.506;30.834;2023-04-27T00:13:35;99250.58;;;12.56;69.59
50592;BME280;36548;50.506;30.834;2023-04-27T00:14:50;99248.94;;;12.65;69.37
50592;BME280;36548;50.506;30.834;2023-04-27T00:16:00;99246.17;;;12.55;69.26
50592;BME280;36548;50.506;30.834;2023-04-27T00:17:11;99247.05;;;12.55;68.88
50592;BME280;36548;50.506;30.834;2023-04-27T00:18:26;99254.87;;;12.68;69.37
50592;BME280;36548;50.506;30.834;2023-04-27T00:19:36;99255.27;;;12.54;69.11
50592;BME280;36548;50.506;30.834;2023-04-27T00:20:46;99253.24;;;12.46;69.36
50592;BME280;36548;50.506;30.834;2023-04-27T00:21:55;99256.48;;;12.40;69.31
50592;BME280;36548;50.506;30.834;2023-04-27T00:23:12;99264.28;;;12.43;69.80
50592;BME280;36548;50.506;30.834;2023-04-27T00:24:21;99264.77;;;12.27;69.97
50592;BME280;36548;50.506;30.834;2023-04-27T00:25:29;99261.51;;;12.23;70.35
50592;BME280;36548;50.506;30.834;2023-04-27T00:26:44;99264.61;;;12.19;70.16
50592;BME280;36548;50.506;30.834;2023-04-27T00:27:54;99263.91;;;11.96;70.67
50592;BME280;36548;50.506;30.834;2023-04-27T00:29:02;99273.33;;;11.90;71.42
50592;BME280;36548;50.506;30.834;2023-04-27T00:30:12;99265.53;;;11.87;71.70
50592;BME280;36548;50.506;30.834;2023-04-27T00:31:22;99271.48;;;11.90;71.98
50592;BME280;36548;50.506;30.834;2023-04-27T00:32:37;99256.59;;;12.07;71.53
50592;BME280;36548;50.506;30.834;2023-04-27T00:33:46;99270.59;;;12.01;71.24
50592;BME280;36548;50.506;30.834;2023-04-27T00:35:03;99265.12;;;12.13;70.79
50592;BME280;36548;50.506;30.834;2023-04-27T00:36:13;99269.91;;;12.09;70.98
50592;BME280;36548;50.506;30.834;2023-04-27T00:37:28;99271.16;;;12.26;70.54
50592;BME280;36548;50.506;30.834;2023-04-27T00:38:37;99275.62;;;12.16;70.18
50592;BME280;36548;50.506;30.834;2023-04-27T00:39:46;99273.66;;;12.18;70.32
50592;BME280;36548;50.506;30.834;2023-04-27T00:41:04;99275.09;;;12.22;70.11
50592;BME280;36548;50.506;30.834;2023-04-27T00:42:20;99274.21;;;12.42;70.50
50592;BME280;36548;50.506;30.834;2023-04-27T00:43:32;99272.88;;;12.37;70.09
50592;BME280;36548;50.506;30.834;2023-04-27T00:44:45;99276.91;;;12.42;70.01
50592;BME280;36548;50.506;30.834;2023-04-27T00:45:55;99276.34;;;12.49;69.48
50592;BME280;36548;50.506;30.834;2023-04-27T00:47:05;99283.44;;;12.50;68.95
50592;BME280;36548;50.506;30.834;2023-04-27T00:48:22;99280.09;;;12.67;69.15
50592;BME280;36548;50.506;30.834;2023-04-27T00:49:34;99284.32;;;12.60;69.29
50592;BME280;36548;50.506;30.834;2023-04-27T00:50:50;99277.84;;;12.72;69.61
50592;BME280;36548;50.506;30.834;2023-04-27T00:52:01;99289.84;;;12.58;69.23
50592;BME280;36548;50.506;30.834;2023-04-27T00:53:18;99286.73;;;12.63;69.33
50592;BME280;36548;50.506;30.834;2023-04-27T00:54:30;99289.21;;;12.45;68.68
50592;BME280;36548;50.506;30.834;2023-04-27T00:55:40;99293.84;;;12.33;68.66
50592;BME280;36548;50.506;30.834;2023-04-27T00:56:51;99284.75;;;12.24;69.22
50592;BME280;36548;50.506;30.834;2023-04-27T00:58:07;99280.91;;;12.27;69.74
50592;BME280;36548;50.506;30.834;2023-04-27T00:59:17;99286.05;;;12.09;69.86
50592;BME280;36548;50.506;30.834;2023-04-27T01:00:28;99284.87;;;12.02;70.24
50592;BME280;36548;50.506;30.834;2023-04-27T01:01:41;99295.30;;;11.95;70.88
50592;BME280;36548;50.506;30.834;2023-04-27T01:02:57;99292.95;;;12.02;71.22
50592;BME280;36548;50.506;30.834;2023-04-27T01:04:09;99292.42;;;11.87;71.02
50592;BME280;36548;50.506;30.834;2023-04-27T01:05:19;99289.59;;;11.88;71.04
50592;BME280;36548;50.506;30.834;2023-04-27T01:06:28;99293.63;;;11.94;71.19
50592;BME280;36548;50.506;30.834;2023-04-27T01:07:38;99290.57;;;11.87;70.02
50592;BME280;36548;50.506;30.834;2023-04-27T01:08:54;99290.13;;;12.03;70.34
50592;BME280;36548;50.506;30.834;2023-04-27T01:10:05;99281.75;;;11.97;70.77
50592;BME280;36548;50.506;30.834;2023-04-27T01:11:20;99280.30;;;12.14;70.49
50592;BME280;36548;50.506;30.834;2023-04-27T01:12:29;99286.32;;;12.06;69.94
50592;BME280;36548;50.506;30.834;2023-04-27T01:13:38;99286.78;;;12.11;70.14
50592;BME280;36548;50.506;30.834;2023-04-27T01:14:55;99278.77;;;12.21;69.31
50592;BME280;36548;50.506;30.834;2023-04-27T01:16:05;99287.20;;;12.06;69.39
50592;BME280;36548;50.506;30.834;2023-04-27T01:17:15;99285.75;;;12.02;69.78
50592;BME280;36548;50.506;30.834;2023-04-27T01:18:32;99283.36;;;12.09;70.29
50592;BME280;36548;50.506;30.834;2023-04-27T01:19:42;99285.89;;;11.89;70.00
50592;BME280;36548;50.506;30.834;2023-04-27T01:20:53;99278.64;;;11.80;70.34
50592;BME280;36548;50.506;30.834;2023-04-27T01:22:11;99278.38;;;11.83;70.57
50592;BME280;36548;50.506;30.834;2023-04-27T01:23:23;99284.66;;;11.72;70.66
50592;BME280;36548;50.506;30.834;2023-04-27T01:24:32;99279.55;;;11.69;70.24
50592;BME280;36548;50.506;30.834;2023-04-27T01:25:47;99274.94;;;11.81;70.16
50592;BME280;36548;50.506;30.834;2023-04-27T01:26:57;99276.32;;;11.75;70.32
50592;BME280;36548;50.506;30.834;2023-04-27T01:28:12;99272.52;;;11.78;69.22
50592;BME280;36548;50.506;30.834;2023-04-27T01:29:22;99275.55;;;11.64;69.08
50592;BME280;36548;50.506;30.834;2023-04-27T01:30:31;99277.97;;;11.67;68.78
50592;BME280;36548;50.506;30.834;2023-04-27T01:31:41;99282.16;;;11.59;68.50
50592;BME280;36548;50.506;30.834;2023-04-27T01:32:50;99275.47;;;11.54;68.40
50592;BME280;36548;50.506;30.834;2023-04-27T01:34:00;99283.38;;;11.34;68.82
50592;BME280;36548;50.506;30.834;2023-04-27T01:35:16;99278.58;;;11.38;69.06
50592;BME280;36548;50.506;30.834;2023-04-27T01:36:26;99284.65;;;11.19;69.16
50592;BME280;36548;50.506;30.834;2023-04-27T01:37:42;99273.52;;;11.23;69.62
50592;BME280;36548;50.506;30.834;2023-04-27T01:38:51;99277.92;;;11.13;70.14
50592;BME280;36548;50.506;30.834;2023-04-27T01:40:03;99284.66;;;11.07;69.93
50592;BME280;36548;50.506;30.834;2023-04-27T01:41:22;99281.00;;;11.08;69.87
50592;BME280;36548;50.506;30.834;2023-04-27T01:42:32;99288.14;;;10.87;70.00
50592;BME280;36548;50.506;30.834;2023-04-27T01:43:47;99282.36;;;11.03;70.23
50592;BME280;36548;50.506;30.834;2023-04-27T01:44:57;99283.97;;;10.94;70.20
50592;BME280;36548;50.506;30.834;2023-04-27T01:46:16;99286.02;;;11.02;69.88
50592;BME280;36548;50.506;30.834;2023-04-27T01:47:26;99287.89;;;10.90;70.33
50592;BME280;36548;50.506;30.834;2023-04-27T01:48:40;99292.87;;;10.95;70.33
50592;BME280;36548;50.506;30.834;2023-04-27T01:49:49;99284.56;;;10.98;70.15
50592;BME280;36548;50.506;30.834;2023-04-27T01:50:59;99294.20;;;11.00;70.20
50592;BME280;36548;50.506;30.834;2023-04-27T01:52:08;99297.24;;;11.07;70.19
50592;BME280;36548;50.506;30.834;2023-04-27T01:53:17;99306.01;;;11.09;69.49
50592;BME280;36548;50.506;30.834;2023-04-27T01:54:29;99302.70;;;11.17;69.44
50592;BME280;36548;50.506;30.834;2023-04-27T01:55:44;99304.87;;;11.34;68.86
50592;BME280;36548;50.506;30.834;2023-04-27T01:56:53;99302.35;;;11.10;68.60
50592;BME280;36548;50.506;30.834;2023-04-27T01:58:03;99303.94;;;11.13;69.10
50592;BME280;36548;50.506;30.834;2023-04-27T01:59:13;99303.23;;;11.11;69.22
50592;BME280;36548;50.506;30.834;2023-04-27T02:00:23;99306.27;;;11.06;69.38
50592;BME280;36548;50.506;30.834;2023-04-27T02:01:38;99303.81;;;11.14;69.72
50592;BME280;36548;50.506;30.834;2023-04-27T02:02:48;99311.41;;;10.98;69.54
50592;BME280;36548;50.506;30.834;2023-04-27T02:04:03;99308.14;;;10.94;69.76
50592;BME280;36548;50.506;30.834;2023-04-27T02:05:13;99313.02;;;10.89;69.81
50592;BME280;36548;50.506;30.834;2023-04-27T02:06:22;99319.25;;;10.78;69.37
50592;BME280;36548;50.506;30.834;2023-04-27T02:07:32;99319.38;;;10.77;70.13
50592;BME280;36548;50.506;30.834;2023-04-27T02:08:41;99326.94;;;10.71;70.05
50592;BME280;36548;50.506;30.834;2023-04-27T02:09:51;99308.91;;;10.62;70.31
50592;BME280;36548;50.506;30.834;2023-04-27T02:11:01;99319.02;;;10.58;70.36
50592;BME280;36548;50.506;30.834;2023-04-27T02:12:16;99314.52;;;10.70;70.61
50592;BME280;36548;50.506;30.834;2023-04-27T02:13:25;99310.97;;;10.58;70.45
50592;BME280;36548;50.506;30.834;2023-04-27T02:14:36;99320.11;;;10.67;70.73
50592;BME280;36548;50.506;30.834;2023-04-27T02:15:46;99321.22;;;10.76;70.62
50592;BME280;36548;50.506;30.834;2023-04-27T02:17:21;99302.28;;;10.89;69.59
50592;BME280;36548;50.506;30.834;2023-04-27T02:18:32;99308.75;;;10.86;69.97
50592;BME280;36548;50.506;30.834;2023-04-27T02:19:48;99304.36;;;10.97;69.24
50592;BME280;36548;50.506;30.834;2023-04-27T02:20:57;99325.95;;;10.84;68.87
50592;BME280;36548;50.506;30.834;2023-04-27T02:22:07;99321.68;;;10.81;69.30
50592;BME280;36548;50.506;30.834;2023-04-27T02:23:16;99315.34;;;10.82;70.21
50592;BME280;36548;50.506;30.834;2023-04-27T02:24:26;99325.23;;;10.82;70.33
50592;BME280;36548;50.506;30.834;2023-04-27T02:25:41;99324.02;;;10.86;70.35
50592;BME280;36548;50.506;30.834;2023-04-27T02:26:52;99322.44;;;10.72;70.44
50592;BME280;36548;50.506;30.834;2023-04-27T02:28:07;99319.61;;;10.85;70.22
50592;BME280;36548;50.506;30.834;2023-04-27T02:29:16;99328.89;;;10.81;70.41
50592;BME280;36548;50.506;30.834;2023-04-27T02:30:32;99317.03;;;10.95;69.69
50592;BME280;36548;50.506;30.834;2023-04-27T02:31:41;99328.62;;;10.95;70.04
50592;BME280;36548;50.506;30.834;2023-04-27T02:32:53;99328.27;;;11.00;69.61
50592;BME280;36548;50.506;30.834;2023-04-27T02:34:02;99327.39;;;10.99;68.85
50592;BME280;36548;50.506;30.834;2023-04-27T02:35:12;99331.80;;;11.00;69.16
50592;BME280;36548;50.506;30.834;2023-04-27T02:36:27;99322.25;;;11.07;68.86
50592;BME280;36548;50.506;30.834;2023-04-27T02:37:36;99338.77;;;10.91;69.35
50592;BME280;36548;50.506;30.834;2023-04-27T02:38:44;99337.19;;;10.89;69.48
50592;BME280;36548;50.506;30.834;2023-04-27T02:40:01;99336.22;;;10.90;69.17
50592;BME280;36548;50.506;30.834;2023-04-27T02:41:13;99338.16;;;10.77;69.94
50592;BME280;36548;50.506;30.834;2023-04-27T02:42:22;99344.63;;;10.74;70.30
50592;BME280;36548;50.506;30.834;2023-04-27T02:43:39;99333.42;;;10.80;70.29
50592;BME280;36548;50.506;30.834;2023-04-27T02:44:48;99336.20;;;10.67;70.51
50592;BME280;36548;50.506;30.834;2023-04-27T02:46:04;99333.89;;;10.74;70.27
50592;BME280;36548;50.506;30.834;2023-04-27T02:47:14;99336.71;;;10.61;70.18
50592;BME280;36548;50.506;30.834;2023-04-27T02:48:30;99334.64;;;10.76;70.37
50592;BME280;36548;50.506;30.834;2023-04-27T02:49:40;99343.42;;;10.67;69.58
50592;BME280;36548;50.506;30.834;2023-04-27T02:50:49;99338.30;;;10.75;69.83
50592;BME280;36548;50.506;30.834;2023-04-27T02:51:59;99344.75;;;10.84;70.01
50592;BME280;36548;50.506;30.834;2023-04-27T02:53:13;99333.89;;;10.97;69.08
50592;BME280;36548;50.506;30.834;2023-04-27T02:54:23;99336.47;;;10.87;69.28
50592;BME280;36548;50.506;30.834;2023-04-27T02:55:33;99336.10;;;10.80;69.05
50592;BME280;36548;50.506;30.834;2023-04-27T02:56:43;99338.05;;;10.67;68.89
50592;BME280;36548;50.506;30.834;2023-04-27T02:57:59;99333.30;;;10.70;69.72
50592;BME280;36548;50.506;30.834;2023-04-27T02:59:08;99344.26;;;10.45;69.55
50592;BME280;36548;50.506;30.834;2023-04-27T03:00:25;99336.21;;;10.45;70.53
50592;BME280;36548;50.506;30.834;2023-04-27T03:01:35;99345.31;;;10.31;70.99
50592;BME280;36548;50.506;30.834;2023-04-27T03:02:44;99347.73;;;10.22;71.12
50592;BME280;36548;50.506;30.834;2023-04-27T03:04:01;99341.28;;;10.25;71.33
50592;BME280;36548;50.506;30.834;2023-04-27T03:05:11;99347.13;;;10.19;71.71
50592;BME280;36548;50.506;30.834;2023-04-27T03:06:22;99353.94;;;10.23;71.63
50592;BME280;36548;50.506;30.834;2023-04-27T03:07:37;99348.91;;;10.43;71.64
50592;BME280;36548;50.506;30.834;2023-04-27T03:08:46;99343.04;;;10.37;71.25
50592;BME280;36548;50.506;30.834;2023-04-27T03:10:01;99343.42;;;10.55;70.77
50592;BME280;36548;50.506;30.834;2023-04-27T03:11:11;99346.36;;;10.52;70.99
50592;BME280;36548;50.506;30.834;2023-04-27T03:12:27;99351.72;;;10.75;71.04
50592;BME280;36548;50.506;30.834;2023-04-27T03:13:36;99351.22;;;10.70;70.30
50592;BME280;36548;50.506;30.834;2023-04-27T03:14:52;99356.95;;;10.77;70.09
50592;BME280;36548;50.506;30.834;2023-04-27T03:16:08;99352.91;;;10.94;69.76
50592;BME280;36548;50.506;30.834;2023-04-27T03:17:20;99359.27;;;10.81;69.02
50592;BME280;36548;50.506;30.834;2023-04-27T03:18:37;99362.08;;;11.02;69.25
50592;BME280;36548;50.506;30.834;2023-04-27T03:19:47;99370.74;;;10.95;69.03
50592;BME280;36548;50.506;30.834;2023-04-27T03:21:11;99366.34;;;10.94;68.94
50592;BME280;36548;50.506;30.834;2023-04-27T03:22:28;99365.24;;;10.96;68.99
50592;BME280;36548;50.506;30.834;2023-04-27T03:23:37;99357.45;;;10.82;69.46
50592;BME280;36548;50.506;30.834;2023-04-27T03:24:46;99362.45;;;10.64;69.08
50592;BME280;36548;50.506;30.834;2023-04-27T03:25:56;99367.94;;;10.51;69.43
50592;BME280;36548;50.506;30.834;2023-04-27T03:27:06;99373.65;;;10.46;70.21
50592;BME280;36548;50.506;30.834;2023-04-27T03:28:21;99369.88;;;10.49;70.37
50592;BME280;36548;50.506;30.834;2023-04-27T03:29:31;99378.16;;;10.34;70.72
50592;BME280;36548;50.506;30.834;2023-04-27T03:30:46;99367.91;;;10.39;71.31
50592;BME280;36548;50.506;30.834;2023-04-27T03:31:54;99369.81;;;10.26;71.23
50592;BME280;36548;50.506;30.834;2023-04-27T03:33:03;99377.11;;;10.24;71.11
50592;BME280;36548;50.506;30.834;2023-04-27T03:34:19;99373.05;;;10.43;71.41
50592;BME280;36548;50.506;30.834;2023-04-27T03:35:29;99382.44;;;10.37;71.16
50592;BME280;36548;50.506;30.834;2023-04-27T03:36:44;99382.58;;;10.47;70.51
50592;BME280;36548;50.506;30.834;2023-04-27T03:37:53;99382.44;;;10.37;70.34
50592;BME280;36548;50.506;30.834;2023-04-27T03:39:02;99374.61;;;10.45;70.51
50592;BME280;36548;50.506;30.834;2023-04-27T03:40:17;99377.94;;;10.60;70.22
50592;BME280;36548;50.506;30.834;2023-04-27T03:41:29;99382.33;;;10.50;69.98
50592;BME280;36548;50.506;30.834;2023-04-27T03:42:44;99383.67;;;10.67;69.98
50592;BME280;36548;50.506;30.834;2023-04-27T03:43:55;99391.22;;;10.50;69.63
50592;BME280;36548;50.506;30.834;2023-04-27T03:45:06;99390.38;;;10.50;69.61
50592;BME280;36548;50.506;30.834;2023-04-27T03:46:15;99386.48;;;10.54;69.83
50592;BME280;36548;50.506;30.834;2023-04-27T03:47:25;99389.41;;;10.51;70.04
50592;BME280;36548;50.506;30.834;2023-04-27T03:48:41;99381.83;;;10.56;70.42
50592;BME280;36548;50.506;30.834;2023-04-27T03:49:52;99385.97;;;10.37;70.29
50592;BME280;36548;50.506;30.834;2023-04-27T03:51:01;99382.73;;;10.32;71.07
50592;BME280;36548;50.506;30.834;2023-04-27T03:52:11;99391.75;;;10.31;71.51
50592;BME280;36548;50.506;30.834;2023-04-27T03:53:26;99393.52;;;10.44;71.33
50592;BME280;36548;50.506;30.834;2023-04-27T03:54:36;99393.26;;;10.35;70.86
50592;BME280;36548;50.506;30.834;2023-04-27T03:55:50;99387.20;;;10.56;71.00
50592;BME280;36548;50.506;30.834;2023-04-27T03:57:00;99396.58;;;10.50;70.55
50592;BME280;36548;50.506;30.834;2023-04-27T03:58:11;99399.41;;;10.60;70.80
50592;BME280;36548;50.506;30.834;2023-04-27T03:59:28;99398.31;;;10.74;69.75
50592;BME280;36548;50.506;30.834;2023-04-27T04:00:39;99407.46;;;10.71;70.11
50592;BME280;36548;50.506;30.834;2023-04-27T04:01:55;99394.66;;;10.86;69.40
50592;BME280;36548;50.506;30.834;2023-04-27T04:03:08;99408.59;;;10.80;69.93
50592;BME280;36548;50.506;30.834;2023-04-27T04:04:18;99409.80;;;10.76;69.22
50592;BME280;36548;50.506;30.834;2023-04-27T04:05:28;99409.30;;;10.71;69.77
50592;BME280;36548;50.506;30.834;2023-04-27T04:06:39;99406.36;;;10.63;69.78
50592;BME280;36548;50.506;30.834;2023-04-27T04:07:48;99408.55;;;10.57;69.93
50592;BME280;36548;50.506;30.834;2023-04-27T04:09:03;99404.30;;;10.66;70.64
50592;BME280;36548;50.506;30.834;2023-04-27T04:10:14;99413.65;;;10.49;70.19
50592;BME280;36548;50.506;30.834;2023-04-27T04:11:23;99411.08;;;10.36;70.03
50592;BME280;36548;50.506;30.834;2023-04-27T04:12:35;99404.33;;;10.31;70.71
50592;BME280;36548;50.506;30.834;2023-04-27T04:13:45;99401.30;;;10.35;71.14
50592;BME280;36548;50.506;30.834;2023-04-27T04:14:54;99400.46;;;10.35;70.88
50592;BME280;36548;50.506;30.834;2023-04-27T04:16:06;99394.73;;;10.39;70.64
50592;BME280;36548;50.506;30.834;2023-04-27T04:17:22;99390.51;;;10.60;70.88
50592;BME280;36548;50.506;30.834;2023-04-27T04:18:33;99396.25;;;10.55;70.62
50592;BME280;36548;50.506;30.834;2023-04-27T04:19:49;99393.57;;;10.78;70.83
50592;BME280;36548;50.506;30.834;2023-04-27T04:20:58;99401.63;;;10.78;70.97
50592;BME280;36548;50.506;30.834;2023-04-27T04:22:13;99391.13;;;10.97;69.98
50592;BME280;36548;50.506;30.834;2023-04-27T04:23:23;99401.38;;;10.92;69.63
50592;BME280;36548;50.506;30.834;2023-04-27T04:24:33;99398.21;;;10.98;69.49
50592;BME280;36548;50.506;30.834;2023-04-27T04:25:44;99401.61;;;11.00;69.08
50592;BME280;36548;50.506;30.834;2023-04-27T04:27:02;99392.72;;;11.00;68.68
50592;BME280;36548;50.506;30.834;2023-04-27T04:28:12;99408.46;;;10.82;69.16
50592;BME280;36548;50.506;30.834;2023-04-27T04:29:21;99397.84;;;10.69;69.92
50592;BME280;36548;50.506;30.834;2023-04-27T04:30:38;99404.44;;;10.76;70.61
50592;BME280;36548;50.506;30.834;2023-04-27T04:31:48;99400.61;;;10.56;70.47
50592;BME280;36548;50.506;30.834;2023-04-27T04:32:58;99395.62;;;10.51;71.02
50592;BME280;36548;50.506;30.834;2023-04-27T04:34:13;99396.34;;;10.53;70.89
50592;BME280;36548;50.506;30.834;2023-04-27T04:35:23;99407.56;;;10.47;71.02
50592;BME280;36548;50.506;30.834;2023-04-27T04:36:32;99407.06;;;10.42;70.24
50592;BME280;36548;50.506;30.834;2023-04-27T04:37:47;99393.19;;;10.60;70.63
50592;BME280;36548;50.506;30.834;2023-04-27T04:38:56;99400.14;;;10.51;70.13
50592;BME280;36548;50.506;30.834;2023-04-27T04:40:08;99403.17;;;10.57;70.02
50592;BME280;36548;50.506;30.834;2023-04-27T04:41:18;99403.68;;;10.63;70.11
50592;BME280;36548;50.506;30.834;2023-04-27T04:42:26;99404.30;;;10.66;69.53
50592;BME280;36548;50.506;30.834;2023-04-27T04:43:40;99401.97;;;10.73;69.71
50592;BME280;36548;50.506;30.834;2023-04-27T04:44:49;99403.22;;;10.80;69.76
50592;BME280;36548;50.506;30.834;2023-04-27T04:46:25;99395.41;;;10.88;68.70
50592;BME280;36548;50.506;30.834;2023-04-27T04:47:35;99412.48;;;10.76;69.09
50592;BME280;36548;50.506;30.834;2023-04-27T04:49:10;99405.27;;;10.77;68.86
50592;BME280;36548;50.506;30.834;2023-04-27T04:50:21;99415.50;;;10.60;69.31
50592;BME280;36548;50.506;30.834;2023-04-27T04:51:43;99411.73;;;10.63;69.67
50592;BME280;36548;50.506;30.834;2023-04-27T04:52:59;99407.95;;;10.54;69.24
50592;BME280;36548;50.506;30.834;2023-04-27T04:54:09;99413.13;;;10.33;69.35
50592;BME280;36548;50.506;30.834;2023-04-27T04:55:19;99410.05;;;10.26;69.70
50592;BME280;36548;50.506;30.834;2023-04-27T04:56:28;99415.75;;;10.21;70.20
50592;BME280;36548;50.506;30.834;2023-04-27T04:57:43;99409.42;;;10.22;70.12
50592;BME280;36548;50.506;30.834;2023-04-27T04:58:52;99417.80;;;10.06;70.38
50592;BME280;36548;50.506;30.834;2023-04-27T05:00:09;99407.91;;;10.07;71.05
50592;BME280;36548;50.506;30.834;2023-04-27T05:01:21;99421.96;;;9.86;71.24
50592;BME280;36548;50.506;30.834;2023-04-27T05:02:37;99415.56;;;10.00;71.69
50592;BME280;36548;50.506;30.834;2023-04-27T05:03:47;99425.28;;;9.90;71.39
50592;BME280;36548;50.506;30.834;2023-04-27T05:04:57;99423.20;;;9.94;71.65
50592;BME280;36548;50.506;30.834;2023-04-27T05:06:19;99416.23;;;10.15;71.69
50592;BME280;36548;50.506;30.834;2023-04-27T05:07:28;99426.11;;;10.15;71.75
50592;BME280;36548;50.506;30.834;2023-04-27T05:08:38;99424.42;;;10.25;71.50
50592;BME280;36548;50.506;30.834;2023-04-27T05:09:48;99432.74;;;10.33;70.87
50592;BME280;36548;50.506;30.834;2023-04-27T05:11:04;99419.14;;;10.48;70.18
50592;BME280;36548;50.506;30.834;2023-04-27T05:12:13;99426.47;;;10.46;70.26
50592;BME280;36548;50.506;30.834;2023-04-27T05:13:23;99423.17;;;10.53;70.15
50592;BME280;36548;50.506;30.834;2023-04-27T05:14:36;99425.64;;;10.56;69.20
50592;BME280;36548;50.506;30.834;2023-04-27T05:15:53;99421.25;;;10.67;69.14
50592;BME280;36548;50.506;30.834;2023-04-27T05:17:03;99431.14;;;10.66;69.51
50592;BME280;36548;50.506;30.834;2023-04-27T05:18:12;99435.64;;;10.66;68.34
50592;BME280;36548;50.506;30.834;2023-04-27T05:19:30;99426.16;;;10.84;68.46
50592;BME280;36548;50.506;30.834;2023-04-27T05:20:40;99437.36;;;10.67;68.28
50592;BME280;36548;50.506;30.834;2023-04-27T05:21:57;99427.47;;;10.67;68.36
50592;BME280;36548;50.506;30.834;2023-04-27T05:23:06;99428.54;;;10.53;69.09
50592;BME280;36548;50.506;30.834;2023-04-27T05:24:21;99433.19;;;10.51;68.67
50592;BME280;36548;50.506;30.834;2023-04-27T05:25:30;99431.81;;;10.34;69.16
50592;BME280;36548;50.506;30.834;2023-04-27T05:26:46;99433.89;;;10.42;69.91
50592;BME280;36548;50.506;30.834;2023-04-27T05:27:56;99437.00;;;10.24;69.77
50592;BME280;36548;50.506;30.834;2023-04-27T05:29:11;99427.74;;;10.29;70.11
50592;BME280;36548;50.506;30.834;2023-04-27T05:30:21;99438.13;;;10.09;69.95
50592;BME280;36548;50.506;30.834;2023-04-27T05:31:29;99440.20;;;10.05;70.48
50592;BME280;36548;50.506;30.834;2023-04-27T05:32:39;99448.86;;;10.09;71.20
50592;BME280;36548;50.506;30.834;2023-04-27T05:33:54;99441.84;;;10.19;70.99
50592;BME280;36548;50.506;30.834;2023-04-27T05:35:04;99436.33;;;10.10;70.99
50592;BME280;36548;50.506;30.834;2023-04-27T05:36:19;99437.09;;;10.23;70.92
50592;BME280;36548;50.506;30.834;2023-04-27T05:37:28;99441.72;;;10.21;70.94
50592;BME280;36548;50.506;30.834;2023-04-27T05:38:38;99439.67;;;10.24;70.47
50592;BME280;36548;50.506;30.834;2023-04-27T05:39:53;99433.16;;;10.40;70.09
50592;BME280;36548;50.506;30.834;2023-04-27T05:41:03;99439.73;;;10.36;70.06
50592;BME280;36548;50.506;30.834;2023-04-27T05:42:12;99441.34;;;10.38;69.50
50592;BME280;36548;50.506;30.834;2023-04-27T05:43:23;99442.56;;;10.46;69.69
50592;BME280;36548;50.506;30.834;2023-04-27T05:44:40;99436.73;;;10.63;69.37
50592;BME280;36548;50.506;30.834;2023-04-27T05:45:48;99440.75;;;10.57;69.63
50592;BME280;36548;50.506;30.834;2023-04-27T05:47:04;99442.09;;;10.63;69.08
50592;BME280;36548;50.506;30.834;2023-04-27T05:48:16;99439.52;;;10.50;69.56
50592;BME280;36548;50.506;30.834;2023-04-27T05:49:26;99439.77;;;10.47;69.89
50592;BME280;36548;50.506;30.834;2023-04-27T05:50:35;99445.70;;;10.39;69.82
50592;BME280;36548;50.506;30.834;2023-04-27T05:51:44;99450.59;;;10.34;69.95
50592;BME280;36548;50.506;30.834;2023-04-27T05:52:54;99451.01;;;10.28;70.69
50592;BME280;36548;50.506;30.834;2023-04-27T05:54:09;99445.10;;;10.36;70.85
50592;BME280;36548;50.506;30.834;2023-04-27T05:55:23;99451.33;;;10.12;70.20
50592;BME280;36548;50.506;30.834;2023-04-27T05:56:39;99449.05;;;10.19;71.19
50592;BME280;36548;50.506;30.834;2023-04-27T05:58:34;99450.86;;;10.18;71.39
50592;BME280;36548;50.506;30.834;2023-04-27T05:59:44;99452.81;;;10.16;71.82
50592;BME280;36548;50.506;30.834;2023-04-27T06:01:01;99452.48;;;10.32;71.33
50592;BME280;36548;50.506;30.834;2023-04-27T06:02:14;99449.53;;;10.24;71.10
50592;BME280;36548;50.506;30.834;2023-04-27T06:03:24;99459.17;;;10.27;70.87
50592;BME280;36548;50.506;30.834;2023-04-27T06:04:34;99459.93;;;10.29;70.84
50592;BME280;36548;50.506;30.834;2023-04-27T06:05:55;99455.11;;;10.45;70.65
50592;BME280;36548;50.506;30.834;2023-04-27T06:07:12;99454.96;;;10.35;70.61
50592;BME280;36548;50.506;30.834;2023-04-27T06:08:29;99452.69;;;10.53;70.13
50592;BME280;36548;50.506;30.834;2023-04-27T06:09:39;99466.84;;;10.44;69.91
50592;BME280;36548;50.506;30.834;2023-04-27T06:10:50;99462.95;;;10.48;69.98
50592;BME280;36548;50.506;30.834;2023-04-27T06:12:06;99461.52;;;10.67;69.74
50592;BME280;36548;50.506;30.834;2023-04-27T06:13:16;99455.88;;;10.58;69.68
50592;BME280;36548;50.506;30.834;2023-04-27T06:14:34;99458.58;;;10.70;69.50
50592;BME280;36548;50.506;30.834;2023-04-27T06:15:44;99464.42;;;10.52;69.41
50592;BME280;36548;50.506;30.834;2023-04-27T06:16:59;99456.97;;;10.56;69.91
50592;BME280;36548;50.506;30.834;2023-04-27T06:18:09;99469.84;;;10.39;69.98